createdAt,value
2018-06-20T00:02:26.106Z,15.80
2018-06-20T00:04:54.360Z,15.70
2018-06-20T00:07:22.593Z,15.80
2018-06-20T00:09:50.850Z,15.70
2018-06-20T00:12:19.092Z,15.70
2018-06-20T00:14:47.300Z,15.70
2018-06-20T00:17:15.517Z,15.70
2018-06-20T00:19:43.805Z,15.60
2018-06-20T00:22:12.032Z,15.60
2018-06-20T00:24:40.275Z,15.50
2018-06-20T00:27:08.512Z,15.50
2018-06-20T00:29:36.747Z,15.50
2018-06-20T00:32:04.992Z,15.50
2018-06-20T00:34:33.210Z,15.40
2018-06-20T00:37:01.435Z,15.40
2018-06-20T00:39:29.673Z,15.40
2018-06-20T00:41:57.941Z,15.40
2018-06-20T00:44:26.176Z,15.40
2018-06-20T00:46:54.389Z,15.40
2018-06-20T00:49:22.635Z,15.30
2018-06-20T00:51:50.835Z,15.40
2018-06-20T00:54:19.084Z,15.40
2018-06-20T00:56:47.320Z,15.40
2018-06-20T00:59:15.536Z,15.40
2018-06-20T01:01:43.858Z,15.30
2018-06-20T01:04:12.106Z,15.30
2018-06-20T01:06:40.308Z,15.30
2018-06-20T01:09:10.125Z,15.30
2018-06-20T01:11:38.430Z,15.30
2018-06-20T01:14:06.715Z,15.30
2018-06-20T01:16:34.948Z,15.30
2018-06-20T01:19:03.188Z,15.20
2018-06-20T01:21:31.431Z,15.20
2018-06-20T01:24:18.515Z,15.10
2018-06-20T01:26:46.712Z,15.10
2018-06-20T01:31:42.963Z,14.90
2018-06-20T01:34:11.208Z,14.90
2018-06-20T01:39:09.333Z,14.80
2018-06-20T01:41:37.542Z,14.80
2018-06-20T01:44:05.958Z,14.80
2018-06-20T01:49:02.203Z,14.70
2018-06-20T01:51:30.439Z,14.70
2018-06-20T01:53:58.772Z,14.70
2018-06-20T01:56:27.016Z,14.70
2018-06-20T01:58:55.283Z,14.70
2018-06-20T02:01:23.557Z,14.60
2018-06-20T02:03:51.783Z,14.60
2018-06-20T02:06:20.015Z,14.60
2018-06-20T02:08:50.025Z,14.50
2018-06-20T02:11:18.284Z,14.50
2018-06-20T02:13:46.494Z,14.50
2018-06-20T02:16:14.751Z,14.50
2018-06-20T02:18:42.974Z,14.50
2018-06-20T02:21:11.202Z,14.40
2018-06-20T02:23:39.421Z,14.40
2018-06-20T02:26:07.650Z,14.50
2018-06-20T02:28:35.903Z,14.40
2018-06-20T02:31:04.135Z,14.40
2018-06-20T02:33:32.359Z,14.50
2018-06-20T02:36:04.832Z,14.50
2018-06-20T02:38:33.024Z,14.50
2018-06-20T02:43:29.263Z,14.70
2018-06-20T02:45:57.545Z,14.80
2018-06-20T02:48:25.767Z,14.90
2018-06-20T02:50:54.003Z,14.90
2018-06-20T02:53:22.249Z,15.00
2018-06-20T02:55:50.533Z,15.10
2018-06-20T02:58:18.768Z,15.10
2018-06-20T03:00:47.004Z,15.20
2018-06-20T03:03:15.227Z,15.20
2018-06-20T03:05:43.452Z,15.20
2018-06-20T03:08:11.717Z,15.20
2018-06-20T03:13:07.951Z,15.30
2018-06-20T03:15:36.227Z,15.40
2018-06-20T03:20:32.598Z,15.50
2018-06-20T03:23:00.844Z,15.60
2018-06-20T03:25:29.087Z,15.70
2018-06-20T03:27:57.309Z,15.70
2018-06-20T03:30:25.529Z,15.80
2018-06-20T03:32:53.771Z,15.90
2018-06-20T03:35:21.983Z,16.00
2018-06-20T03:37:50.245Z,16.00
2018-06-20T03:40:18.462Z,16.10
2018-06-20T03:45:14.752Z,16.20
2018-06-20T03:47:42.999Z,16.30
2018-06-20T03:50:11.232Z,16.40
2018-06-20T03:52:39.474Z,16.50
2018-06-20T03:55:07.716Z,16.60
2018-06-20T03:57:35.983Z,16.60
2018-06-20T04:00:04.217Z,16.70
2018-06-20T04:02:32.444Z,16.70
2018-06-20T04:05:00.663Z,16.80
2018-06-20T04:07:28.904Z,16.90
2018-06-20T04:09:57.145Z,16.90
2018-06-20T04:14:53.361Z,16.90
2018-06-20T04:17:21.611Z,16.90
2018-06-20T04:19:49.870Z,17.00
2018-06-20T04:22:18.117Z,17.20
2018-06-20T04:24:46.368Z,17.30
2018-06-20T04:27:14.581Z,17.50
2018-06-20T04:29:42.798Z,17.60
2018-06-20T04:32:11.063Z,17.60
2018-06-20T04:34:39.305Z,17.70
2018-06-20T04:37:07.870Z,17.90
2018-06-20T04:39:36.108Z,18.00
2018-06-20T04:42:04.365Z,18.10
2018-06-20T04:44:32.705Z,18.20
2018-06-20T04:47:00.924Z,18.30
2018-06-20T04:49:29.220Z,18.40
2018-06-20T04:51:57.475Z,18.60
2018-06-20T04:54:26.190Z,18.70
2018-06-20T04:56:54.623Z,18.90
2018-06-20T04:59:23.054Z,19.00
2018-06-20T05:01:51.300Z,19.10
2018-06-20T05:04:19.789Z,19.30
2018-06-20T05:06:48.000Z,19.40
2018-06-20T05:09:18.331Z,19.50
2018-06-20T05:11:47.004Z,19.70
2018-06-20T05:14:15.241Z,19.70
2018-06-20T05:16:43.560Z,19.70
2018-06-20T05:19:12.525Z,19.90
2018-06-20T05:21:40.863Z,19.90
2018-06-20T05:24:09.215Z,20.00
2018-06-20T05:26:37.469Z,20.00
2018-06-20T05:31:33.712Z,20.00
2018-06-20T05:34:02.859Z,20.00
2018-06-20T05:36:31.251Z,20.00
2018-06-20T05:38:59.470Z,20.00
2018-06-20T05:41:27.715Z,20.00
2018-06-20T05:43:55.928Z,20.00
2018-06-20T05:46:24.172Z,20.00
2018-06-20T05:51:20.447Z,20.10
2018-06-20T05:53:48.677Z,20.10
2018-06-20T05:58:44.940Z,20.10
2018-06-20T06:01:13.176Z,20.20
2018-06-20T06:03:41.399Z,20.40
2018-06-20T06:06:14.172Z,20.50
2018-06-20T06:08:42.738Z,20.60
2018-06-20T06:11:11.039Z,20.70
2018-06-20T06:13:39.456Z,20.80
2018-06-20T06:16:07.820Z,21.00
2018-06-20T06:18:36.487Z,21.10
2018-06-20T06:21:05.131Z,21.30
2018-06-20T06:23:33.353Z,21.50
2018-06-20T06:26:01.595Z,21.70
2018-06-20T06:30:58.004Z,22.10
2018-06-20T06:33:26.254Z,22.10
2018-06-20T06:35:54.594Z,22.30
2018-06-20T06:38:22.819Z,22.30
2018-06-20T06:40:51.184Z,22.30
2018-06-20T06:43:19.391Z,22.30
2018-06-20T06:45:47.628Z,22.40
2018-06-20T06:48:15.867Z,22.50
2018-06-20T06:50:44.100Z,22.50
2018-06-20T06:53:12.331Z,22.60
2018-06-20T06:55:40.573Z,22.70
2018-06-20T06:58:08.795Z,22.70
2018-06-20T07:00:37.040Z,22.70
2018-06-20T07:05:33.467Z,23.00
2018-06-20T07:08:01.685Z,23.20
2018-06-20T07:10:29.943Z,23.40
2018-06-20T07:12:58.146Z,23.70
2018-06-20T07:15:26.362Z,24.10
2018-06-20T07:17:54.602Z,24.60
2018-06-20T07:20:22.822Z,24.90
2018-06-20T07:25:19.046Z,25.20
2018-06-20T07:27:47.373Z,25.10
2018-06-20T07:30:15.629Z,25.10
2018-06-20T07:32:43.906Z,25.10
2018-06-20T07:35:12.123Z,25.10
2018-06-20T07:37:40.355Z,25.10
2018-06-20T07:40:08.591Z,25.10
2018-06-20T07:42:36.813Z,25.30
2018-06-20T07:45:05.053Z,25.50
2018-06-20T07:50:01.291Z,25.90
2018-06-20T07:52:29.526Z,26.00
2018-06-20T07:54:57.743Z,26.10
2018-06-20T07:57:25.965Z,26.20
2018-06-20T07:59:59.649Z,26.40
2018-06-20T08:02:44.794Z,26.60
2018-06-20T08:05:18.342Z,26.70
2018-06-20T08:07:51.799Z,26.80
2018-06-20T08:12:58.806Z,26.90
2018-06-20T08:15:32.462Z,27.10
2018-06-20T08:18:06.155Z,27.30
2018-06-20T08:20:34.393Z,27.40
2018-06-20T08:23:02.618Z,27.60
2018-06-20T08:25:30.874Z,27.90
2018-06-20T08:27:59.105Z,28.20
2018-06-20T08:30:27.355Z,28.50
2018-06-20T08:32:55.593Z,28.50
2018-06-20T08:35:23.859Z,28.60
2018-06-20T08:37:52.067Z,28.80
2018-06-20T08:40:20.319Z,29.10
2018-06-20T08:42:48.625Z,29.50
2018-06-20T08:45:17.010Z,29.60
2018-06-20T08:47:45.231Z,29.50
2018-06-20T08:50:13.468Z,29.20
2018-06-20T08:52:41.673Z,29.20
2018-06-20T08:55:10.612Z,29.40
2018-06-20T08:57:38.888Z,29.40
2018-06-20T09:00:07.387Z,29.10
2018-06-20T09:07:14.455Z,29.40
2018-06-20T09:09:48.059Z,29.70
2018-06-20T09:12:21.633Z,30.70
2018-06-20T09:14:55.296Z,31.90
2018-06-20T09:17:28.949Z,32.00
2018-06-20T09:19:58.031Z,32.90
2018-06-20T09:22:26.254Z,34.80
2018-06-20T09:24:54.732Z,36.90
2018-06-20T09:27:22.958Z,37.30
2018-06-20T09:29:51.212Z,35.60
2018-06-20T09:32:19.436Z,33.60
2018-06-20T09:34:47.665Z,31.60
2018-06-20T09:37:15.907Z,30.20
2018-06-20T09:39:44.325Z,29.20
2018-06-20T09:42:12.646Z,28.40
2018-06-20T09:44:40.904Z,27.90
2018-06-20T09:47:09.183Z,27.50
2018-06-20T09:49:37.602Z,27.20
2018-06-20T09:52:05.842Z,27.00
2018-06-20T09:54:34.136Z,26.90
2018-06-20T09:57:02.381Z,26.90
2018-06-20T09:59:35.919Z,27.00
2018-06-20T10:02:09.719Z,27.30
2018-06-20T10:04:43.310Z,27.90
2018-06-20T10:07:14.929Z,28.70
2018-06-20T10:09:48.466Z,29.80
2018-06-20T10:12:22.035Z,31.30
2018-06-20T10:14:50.257Z,32.10
2018-06-20T10:17:18.535Z,31.90
2018-06-20T10:19:46.752Z,31.60
2018-06-20T10:22:15.029Z,31.10
2018-06-20T10:24:43.243Z,30.60
2018-06-20T10:29:39.469Z,29.60
2018-06-20T10:32:07.687Z,29.40
2018-06-20T10:34:35.937Z,29.40
2018-06-20T10:37:04.224Z,29.70
2018-06-20T10:39:32.430Z,30.00
2018-06-20T10:42:00.655Z,29.80
2018-06-20T10:47:02.231Z,29.30
2018-06-20T10:49:30.867Z,28.90
2018-06-20T10:51:59.083Z,28.80
2018-06-20T10:57:00.759Z,28.90
2018-06-20T10:59:34.391Z,29.10
2018-06-20T11:02:07.958Z,29.80
2018-06-20T11:07:14.883Z,31.20
2018-06-20T11:09:48.447Z,31.70
2018-06-20T11:12:21.984Z,31.90
2018-06-20T11:14:50.233Z,32.00
2018-06-20T11:17:18.448Z,31.60
2018-06-20T11:19:46.998Z,31.10
2018-06-20T11:22:15.235Z,30.70
2018-06-20T11:24:43.491Z,30.50
2018-06-20T11:27:11.756Z,30.80
2018-06-20T11:29:39.993Z,31.10
2018-06-20T11:32:08.219Z,31.10
2018-06-20T11:34:36.432Z,30.90
2018-06-20T11:37:04.799Z,30.80
2018-06-20T11:39:33.090Z,31.30
2018-06-20T11:42:01.311Z,31.90
2018-06-20T11:44:29.546Z,32.10
2018-06-20T11:47:03.141Z,32.20
2018-06-20T11:49:31.371Z,32.60
2018-06-20T11:51:59.584Z,33.30
2018-06-20T11:54:27.842Z,33.60
2018-06-20T11:56:56.050Z,33.40
2018-06-20T11:59:29.776Z,32.90
2018-06-20T12:02:03.387Z,32.80
2018-06-20T12:04:37.137Z,32.90
2018-06-20T12:07:10.837Z,32.60
2018-06-20T12:09:44.484Z,32.20
2018-06-20T12:12:18.067Z,31.70
2018-06-20T12:16:54.441Z,31.50
2018-06-20T12:19:27.996Z,31.30
2018-06-20T12:22:01.590Z,31.10
2018-06-20T12:24:35.172Z,30.90
2018-06-20T12:27:08.760Z,30.90
2018-06-20T12:29:42.383Z,30.90
2018-06-20T12:32:16.175Z,31.30
2018-06-20T12:34:49.676Z,31.40
2018-06-20T12:37:23.362Z,31.20
2018-06-20T12:39:55.825Z,30.90
2018-06-20T12:42:29.290Z,30.60
2018-06-20T12:45:05.928Z,30.40
2018-06-20T12:47:40.116Z,30.50
2018-06-20T12:50:25.462Z,30.90
2018-06-20T12:52:53.794Z,31.00
2018-06-20T12:55:22.444Z,31.10
2018-06-20T12:57:50.699Z,31.10
2018-06-20T13:00:18.952Z,31.00
2018-06-20T13:02:47.180Z,31.00
2018-06-20T13:05:15.895Z,31.10
2018-06-20T13:07:44.197Z,31.30
2018-06-20T13:10:12.434Z,31.50
2018-06-20T13:12:40.917Z,31.40
2018-06-20T13:15:09.156Z,31.30
2018-06-20T13:17:37.559Z,31.50
2018-06-20T13:20:05.837Z,31.60
2018-06-20T13:22:34.048Z,31.70
2018-06-20T13:25:02.348Z,31.60
2018-06-20T13:27:35.954Z,31.30
2018-06-20T13:30:10.311Z,31.30
2018-06-20T13:32:43.969Z,31.40
2018-06-20T13:35:17.614Z,31.50
2018-06-20T13:37:51.227Z,31.60
2018-06-20T13:40:25.039Z,31.50
2018-06-20T13:45:32.244Z,31.60
2018-06-20T13:50:34.407Z,31.80
2018-06-20T13:53:02.783Z,31.60
2018-06-20T13:55:31.093Z,31.40
2018-06-20T13:57:59.440Z,31.40
2018-06-20T14:00:27.908Z,31.60
2018-06-20T14:02:56.404Z,31.60
2018-06-20T14:05:25.456Z,31.20
2018-06-20T14:07:53.784Z,30.80
2018-06-20T14:12:50.047Z,30.70
2018-06-20T14:15:18.276Z,31.00
2018-06-20T14:17:46.523Z,31.40
2018-06-20T14:20:20.224Z,31.80
2018-06-20T14:22:48.460Z,31.90
2018-06-20T14:25:16.711Z,31.80
2018-06-20T14:27:44.935Z,31.60
2018-06-20T14:30:17.421Z,31.70
2018-06-20T14:32:51.117Z,31.80
2018-06-20T14:35:24.565Z,31.70
2018-06-20T14:40:01.699Z,31.50
2018-06-20T14:42:35.183Z,30.90
2018-06-20T14:45:08.907Z,30.20
2018-06-20T14:47:37.202Z,30.10
2018-06-20T14:50:05.444Z,30.20
2018-06-20T14:52:33.691Z,30.50
2018-06-20T14:55:01.966Z,30.80
2018-06-20T14:57:30.208Z,31.00
2018-06-20T14:59:58.440Z,31.10
2018-06-20T15:02:26.716Z,31.10
2018-06-20T15:04:54.968Z,31.20
2018-06-20T15:07:23.271Z,31.20
2018-06-20T15:09:51.613Z,31.20
2018-06-20T15:12:20.880Z,31.10
2018-06-20T15:14:49.200Z,31.10
2018-06-20T15:17:22.899Z,31.10
2018-06-20T15:22:19.247Z,30.70
2018-06-20T15:27:22.018Z,30.80
2018-06-20T15:29:55.575Z,30.80
2018-06-20T15:32:29.556Z,30.70
2018-06-20T15:35:03.176Z,30.70
2018-06-20T15:37:36.816Z,30.80
2018-06-20T15:40:05.146Z,30.80
2018-06-20T15:42:33.435Z,30.80
2018-06-20T15:45:01.647Z,30.60
2018-06-20T15:47:30.000Z,30.50
2018-06-20T15:49:58.338Z,30.40
2018-06-20T15:52:26.632Z,30.20
2018-06-20T15:54:54.919Z,30.10
2018-06-20T15:57:23.145Z,30.00
2018-06-20T15:59:51.371Z,29.90
2018-06-20T16:02:19.647Z,29.70
2018-06-20T16:04:47.872Z,29.80
2018-06-20T16:07:16.143Z,30.00
2018-06-20T16:09:49.897Z,30.10
2018-06-20T16:12:18.119Z,30.20
2018-06-20T16:14:46.444Z,30.30
2018-06-20T16:17:14.696Z,30.30
2018-06-20T16:19:48.402Z,30.10
2018-06-20T16:22:22.203Z,29.90
2018-06-20T16:24:55.821Z,29.80
2018-06-20T16:27:30.560Z,29.60
2018-06-20T16:30:04.133Z,29.40
2018-06-20T16:35:00.386Z,29.20
2018-06-20T16:37:28.662Z,29.30
2018-06-20T16:44:53.016Z,29.50
2018-06-20T16:47:21.255Z,29.50
2018-06-20T16:49:49.519Z,29.60
2018-06-20T16:52:17.753Z,29.60
2018-06-20T16:54:45.999Z,29.60
2018-06-20T16:57:14.259Z,29.60
2018-06-20T16:59:42.555Z,29.50
2018-06-20T17:02:16.141Z,29.40
2018-06-20T17:04:44.380Z,29.30
2018-06-20T17:07:17.138Z,29.20
2018-06-20T17:09:45.732Z,29.00
2018-06-20T17:12:19.404Z,28.80
2018-06-20T17:14:53.094Z,28.80
2018-06-20T17:17:26.762Z,28.80
2018-06-20T17:20:00.373Z,28.80
2018-06-20T17:22:33.952Z,28.70
2018-06-20T17:25:07.571Z,28.70
2018-06-20T17:27:35.778Z,28.70
2018-06-20T17:30:04.612Z,28.80
2018-06-20T17:32:32.880Z,28.90
2018-06-20T17:37:29.356Z,28.90
2018-06-20T17:39:57.596Z,28.80
2018-06-20T17:42:25.916Z,28.80
2018-06-20T17:44:54.206Z,28.70
2018-06-20T17:47:22.499Z,28.50
2018-06-20T17:49:50.765Z,28.40
2018-06-20T17:52:19.055Z,28.30
2018-06-20T17:54:47.316Z,28.20
2018-06-20T17:57:15.524Z,28.00
2018-06-20T17:59:43.764Z,27.90
2018-06-20T18:02:12.022Z,27.80
2018-06-20T18:04:45.781Z,27.70
2018-06-20T18:09:53.673Z,27.40
2018-06-20T18:12:27.377Z,27.30
2018-06-20T18:15:00.911Z,27.30
2018-06-20T18:17:29.196Z,27.30
2018-06-20T18:19:57.420Z,27.30
2018-06-20T18:22:25.719Z,27.20
2018-06-20T18:24:53.940Z,27.00
2018-06-20T18:27:22.172Z,26.90
2018-06-20T18:29:50.683Z,26.80
2018-06-20T18:32:21.214Z,26.70
2018-06-20T18:34:49.567Z,26.60
2018-06-20T18:37:17.774Z,26.60
2018-06-20T18:39:51.573Z,26.50
2018-06-20T18:42:19.811Z,26.40
2018-06-20T18:44:48.028Z,26.30
2018-06-20T18:47:24.131Z,26.10
2018-06-20T18:49:52.520Z,25.90
2018-06-20T18:52:20.899Z,25.70
2018-06-20T18:54:49.171Z,25.50
2018-06-20T18:57:22.889Z,25.50
2018-06-20T18:59:56.544Z,25.40
2018-06-20T19:04:37.875Z,25.20
2018-06-20T19:09:39.679Z,24.70
2018-06-20T19:12:07.938Z,24.60
2018-06-20T19:17:04.183Z,24.30
2018-06-20T19:19:32.401Z,24.20
2018-06-20T19:22:00.626Z,24.00
2018-06-20T19:24:28.839Z,23.80
2018-06-20T19:26:57.100Z,23.50
2018-06-20T19:29:25.346Z,23.40
2018-06-20T19:34:21.615Z,23.00
2018-06-20T19:36:49.843Z,22.90
2018-06-20T19:39:23.607Z,22.80
2018-06-20T19:41:51.786Z,22.70
2018-06-20T19:44:25.375Z,22.60
2018-06-20T19:46:53.600Z,22.50
2018-06-20T19:49:21.851Z,22.30
2018-06-20T19:51:50.088Z,22.30
2018-06-20T19:54:18.428Z,22.20
2018-06-20T19:56:46.663Z,22.10
2018-06-20T19:59:14.900Z,22.00
2018-06-20T20:01:43.133Z,22.00
2018-06-20T20:04:11.370Z,21.90
2018-06-20T20:06:39.593Z,21.80
2018-06-20T20:09:08.624Z,21.70
2018-06-20T20:11:36.856Z,21.60
2018-06-20T20:14:05.131Z,21.60
2018-06-20T20:16:33.356Z,21.40
2018-06-20T20:19:01.607Z,21.40
2018-06-20T20:21:29.954Z,21.40
2018-06-20T20:23:58.181Z,21.30
2018-06-20T20:26:26.411Z,21.20
2018-06-20T20:28:54.692Z,21.10
2018-06-20T20:33:51.931Z,20.90
2018-06-20T20:36:20.191Z,20.70
2018-06-20T20:38:48.744Z,20.60
2018-06-20T20:41:17.509Z,20.50
2018-06-20T20:46:13.765Z,20.40
2018-06-20T20:48:41.980Z,20.40
2018-06-20T20:51:10.533Z,20.30
2018-06-20T20:53:38.911Z,20.30
2018-06-20T20:56:07.152Z,20.30
2018-06-20T21:01:03.400Z,20.20
2018-06-20T21:03:31.633Z,20.10
2018-06-20T21:05:59.914Z,20.10
2018-06-20T21:08:28.183Z,20.00
2018-06-20T21:10:56.425Z,20.00
2018-06-20T21:13:24.668Z,19.90
2018-06-20T21:15:52.911Z,19.90
2018-06-20T21:18:21.239Z,19.80
2018-06-20T21:20:49.595Z,19.70
2018-06-20T21:23:17.820Z,19.70
2018-06-20T21:25:46.035Z,19.70
2018-06-20T21:28:14.247Z,19.70
2018-06-20T21:30:42.479Z,19.50
2018-06-20T21:33:10.695Z,19.50
2018-06-20T21:35:38.924Z,19.40
2018-06-20T21:38:07.139Z,19.30
2018-06-20T21:40:35.354Z,19.30
2018-06-20T21:43:03.571Z,19.20
2018-06-20T21:47:59.795Z,19.10
2018-06-20T21:50:28.015Z,19.10
2018-06-20T21:52:56.259Z,19.10
2018-06-20T21:55:24.461Z,19.00
2018-06-20T21:57:52.670Z,19.00
2018-06-20T22:00:22.921Z,19.00
2018-06-20T22:02:51.155Z,18.90
2018-06-20T22:05:25.923Z,18.90
2018-06-20T22:07:54.168Z,18.80
2018-06-20T22:10:22.493Z,18.90
2018-06-20T22:12:50.727Z,18.90
2018-06-20T22:15:18.940Z,18.90
2018-06-20T22:17:47.175Z,18.90
2018-06-20T22:20:15.400Z,18.90
2018-06-20T22:22:43.641Z,18.80
2018-06-20T22:25:11.862Z,18.90
2018-06-20T22:27:40.137Z,18.90
2018-06-20T22:30:08.388Z,18.80
2018-06-20T22:32:36.644Z,18.90
2018-06-20T22:37:33.039Z,18.80
2018-06-20T22:40:01.247Z,18.70
2018-06-20T22:42:29.480Z,18.70
2018-06-20T22:44:57.746Z,18.60
2018-06-20T22:47:26.063Z,18.60
2018-06-20T22:49:54.310Z,18.60
2018-06-20T22:52:23.359Z,18.60
2018-06-20T22:57:19.584Z,18.50
2018-06-20T22:59:47.799Z,18.50
2018-06-20T23:02:16.018Z,18.50
2018-06-20T23:04:44.223Z,18.40
2018-06-20T23:07:12.473Z,18.30
2018-06-20T23:09:40.768Z,18.30
2018-06-20T23:12:08.971Z,18.30
2018-06-20T23:14:37.175Z,18.20
2018-06-20T23:17:05.408Z,18.20
2018-06-20T23:19:33.612Z,18.10
2018-06-20T23:22:01.884Z,18.00
2018-06-20T23:24:30.137Z,18.00
2018-06-20T23:26:58.363Z,17.90
2018-06-20T23:29:26.583Z,17.80
2018-06-20T23:31:54.784Z,17.80
2018-06-20T23:34:23.007Z,17.70
2018-06-20T23:39:19.209Z,17.70
2018-06-20T23:41:47.470Z,17.60
2018-06-20T23:44:15.697Z,17.60
2018-06-20T23:46:44.339Z,17.60
2018-06-20T23:49:12.563Z,17.50
2018-06-20T23:51:40.794Z,17.50
2018-06-20T23:54:09.051Z,17.40
2018-06-20T23:56:37.263Z,17.40
2018-06-20T23:59:05.479Z,17.40
